Etusivu
METAR-TAF:

METAR-TAF

Lentoasemat :

Omak Airport

Omak, Washington, Yhdysvallat

Leveyspiiri: 48-27-51N, Pituuspiiri: 119-31-05W, korkeus merenpinnasta: 397 m

Tämänhetkinen sää

Tämä raportti tehtiin 35 minuuttia sitten, kello 06.53 UTC
Tuuli 10 kn kaakosta
Lämpötila 3°C
Kosteus 65%
Ilmanpaine 1007 hPa
Näkyvyys: 16.1 km
Muutamia pilviä 9500 ft:n korkeudessa

METAR: KOMK 260653Z AUTO 13010KT 10SM FEW095 03/M03 A2973 RMK AO2 SLP078 T00331033

Aika: 23:28 (07:28 UTC)


TAF: puuttuu

Säähavainnot ja -ennusteet yli 4000 lentoasemalta (METAR- ja TAF-raportit).

Käytössä olevat sääasemat on merkitty karttaan keltaisilla ja punaisilla pisteillä.

Aseta hiiri pisteen päälle nähdäksesi sääaseman nimen.

Klikkaa sitten nähdäksesi säähavainnot ja -ennusteet.

Kartan vaihtaminen: klikkaa mustalla rastilla varustettuja vihreitä pisteitä, niin voit zoomata sisään; viivalla varustettua vihreää pistettä, niin voit zoomata ulos tai vihreitä nuolia, niin pääset viereisille kartoille.


METAR-TAF: